createdAt,value
2023-01-11T00:03:39.861Z,93764.05
2023-01-11T00:08:46.913Z,93769.06
2023-01-11T00:13:54.318Z,93754.69
2023-01-11T00:19:01.307Z,93758.31
2023-01-11T00:24:08.951Z,93741.30
2023-01-11T00:29:15.733Z,93745.88
2023-01-11T00:34:23.438Z,93745.95
2023-01-11T00:39:30.522Z,93750.35
2023-01-11T00:44:54.620Z,93756.55
2023-01-11T00:50:01.923Z,93763.97
2023-01-11T00:55:11.033Z,93765.22
2023-01-11T01:00:19.622Z,93764.13
2023-01-11T01:05:26.561Z,93770.41
2023-01-11T01:10:33.422Z,93760.17
2023-01-11T01:15:40.540Z,93761.86
2023-01-11T01:20:47.364Z,93758.66
2023-01-11T01:25:54.157Z,93748.15
2023-01-11T01:31:01.232Z,93757.72
2023-01-11T01:36:09.163Z,93742.11
2023-01-11T01:41:16.813Z,93747.63
2023-01-11T01:46:27.443Z,93740.28
2023-01-11T01:51:50.608Z,93727.10
2023-01-11T01:57:04.408Z,93726.50
2023-01-11T02:02:09.972Z,93724.08
2023-01-11T02:07:22.844Z,93711.05
2023-01-11T02:12:51.979Z,93709.58
2023-01-11T02:17:59.106Z,93707.39
2023-01-11T02:23:42.125Z,93710.36
2023-01-11T02:29:17.140Z,93707.29
2023-01-11T02:34:56.528Z,93702.66
2023-01-11T02:40:16.625Z,93697.59
2023-01-11T02:45:48.721Z,93714.98
2023-01-11T02:51:11.393Z,93718.05
2023-01-11T02:56:24.749Z,93714.64
2023-01-11T03:01:31.916Z,93712.28
2023-01-11T03:06:38.738Z,93713.14
2023-01-11T03:12:13.023Z,93717.64
2023-01-11T03:17:54.936Z,93727.11
2023-01-11T03:23:25.994Z,93725.42
2023-01-11T03:28:39.499Z,93726.80
2023-01-11T03:33:59.738Z,93733.45
2023-01-11T03:39:29.066Z,93732.66
2023-01-11T03:44:40.449Z,93733.75
2023-01-11T03:50:03.202Z,93723.70
2023-01-11T03:55:12.238Z,93719.84
2023-01-11T04:00:23.340Z,93719.41
2023-01-11T04:05:30.074Z,93719.01
2023-01-11T04:10:36.772Z,93711.78
2023-01-11T04:15:43.457Z,93702.03
2023-01-11T04:20:50.216Z,93704.04
2023-01-11T04:25:57.289Z,93712.44
2023-01-11T04:31:04.160Z,93713.80
2023-01-11T04:36:12.585Z,93724.79
2023-01-11T04:41:37.169Z,93715.30
2023-01-11T04:46:43.894Z,93704.00
2023-01-11T04:51:51.038Z,93693.25
2023-01-11T04:56:57.712Z,93542.75
2023-01-11T05:02:04.865Z,93700.38
2023-01-11T05:07:12.438Z,93694.84
2023-01-11T05:12:19.213Z,93694.81
2023-01-11T05:17:26.299Z,93689.52
2023-01-11T05:22:33.149Z,93692.02
2023-01-11T05:27:40.284Z,93694.49
2023-01-11T05:32:47.350Z,93699.17
2023-01-11T05:37:54.102Z,93695.22
2023-01-11T05:43:01.182Z,93697.00
2023-01-11T05:48:08.053Z,93690.35
2023-01-11T05:53:15.537Z,93688.17
2023-01-11T05:58:22.562Z,93687.69
2023-01-11T06:03:30.019Z,93683.63
2023-01-11T06:08:36.938Z,93686.05
2023-01-11T06:13:44.126Z,93689.67
2023-01-11T06:18:53.849Z,93696.93
2023-01-11T06:24:00.720Z,93710.06
2023-01-11T06:29:07.650Z,93710.11
2023-01-11T06:34:14.631Z,93712.98
2023-01-11T06:39:22.243Z,93714.80
2023-01-11T06:44:29.778Z,93718.85
2023-01-11T06:49:36.538Z,93718.56
2023-01-11T06:54:43.269Z,93725.88
2023-01-11T06:59:50.088Z,93730.38
2023-01-11T07:04:57.344Z,93728.30
2023-01-11T07:10:04.426Z,93722.00
2023-01-11T07:15:12.966Z,93729.89
2023-01-11T07:20:20.105Z,93729.13
2023-01-11T07:25:28.172Z,93735.93
2023-01-11T07:30:55.562Z,93735.05
2023-01-11T07:35:49.350Z,93736.30
2023-01-11T07:40:56.688Z,93738.97
2023-01-11T07:46:03.549Z,93727.95
2023-01-11T07:51:10.523Z,93724.75
2023-01-11T07:56:17.442Z,93734.56
2023-01-11T08:01:25.436Z,93751.27
2023-01-11T08:06:32.357Z,93744.02
2023-01-11T08:11:56.553Z,93738.28
2023-01-11T08:17:03.171Z,93733.92
2023-01-11T08:22:10.566Z,93724.00
2023-01-11T08:27:17.522Z,93737.09
2023-01-11T08:32:24.316Z,93739.19
2023-01-11T08:37:30.970Z,93741.06
2023-01-11T08:42:37.841Z,93739.55
2023-01-11T08:47:44.697Z,93736.20
2023-01-11T08:52:52.054Z,93729.47
2023-01-11T08:57:59.698Z,93748.55
2023-01-11T09:03:06.475Z,93717.41
2023-01-11T09:08:13.845Z,93721.88
2023-01-11T09:13:20.668Z,93726.79
2023-01-11T09:18:27.403Z,93724.48
2023-01-11T09:23:34.119Z,93722.16
2023-01-11T09:28:41.169Z,93724.48
2023-01-11T09:33:48.024Z,93719.36
2023-01-11T09:38:56.338Z,93725.66
2023-01-11T09:44:17.068Z,93717.80
2023-01-11T09:49:28.777Z,93722.14
2023-01-11T09:54:35.908Z,93717.41
2023-01-11T09:59:51.469Z,93712.84
2023-01-11T10:05:13.619Z,93704.23
2023-01-11T10:18:23.666Z,93682.32
2023-01-11T10:21:11.464Z,93685.45
2023-01-11T10:26:31.743Z,93682.16
2023-01-11T10:31:50.201Z,93680.06
2023-01-11T10:37:30.966Z,93677.46
2023-01-11T10:42:52.488Z,93673.24
2023-01-11T10:48:09.704Z,93662.30
2023-01-11T10:53:29.896Z,93668.45
2023-01-11T10:58:56.092Z,93659.36
2023-01-11T11:04:32.736Z,93647.69
2023-01-11T11:10:25.949Z,93654.26
2023-01-11T11:15:50.751Z,93661.55
2023-01-11T11:21:07.758Z,93666.56
2023-01-11T11:26:15.735Z,93675.36
2023-01-11T11:31:24.011Z,93672.28
2023-01-11T11:36:32.485Z,93662.85
2023-01-11T11:41:53.046Z,93655.38
2023-01-11T11:47:03.497Z,93643.48
2023-01-11T11:52:18.706Z,93643.51
2023-01-11T11:57:31.996Z,93640.33
2023-01-11T12:02:41.914Z,93630.16
2023-01-11T12:07:55.724Z,93624.12
2023-01-11T12:13:03.203Z,93623.98
2023-01-11T12:18:33.767Z,93624.38
2023-01-11T12:23:41.007Z,93613.98
2023-01-11T12:29:07.597Z,93606.84
2023-01-11T12:34:36.383Z,93601.08
2023-01-11T12:40:02.804Z,93595.86
2023-01-11T12:45:48.527Z,93586.75
2023-01-11T12:51:38.584Z,93581.84
2023-01-11T12:57:10.309Z,93570.31
2023-01-11T13:02:45.358Z,93558.91
2023-01-11T13:08:15.098Z,93552.97
2023-01-11T13:13:34.717Z,93556.70
2023-01-11T13:18:51.749Z,93560.16
2023-01-11T13:24:08.911Z,93567.02
2023-01-11T13:29:29.091Z,93558.78
2023-01-11T13:41:03.507Z,93559.34
2023-01-11T13:46:19.695Z,93559.23
2023-01-11T13:51:40.145Z,93552.03
2023-01-11T13:56:55.547Z,93558.80
2023-01-11T14:02:30.740Z,93555.55
2023-01-11T14:08:08.754Z,93553.83
2023-01-11T14:13:21.540Z,93558.02
2023-01-11T14:18:37.748Z,93554.52
2023-01-11T14:23:53.945Z,93556.38
2023-01-11T14:29:31.583Z,93554.84
2023-01-11T14:35:20.290Z,93557.30
2023-01-11T14:40:40.453Z,93564.19
2023-01-11T14:46:07.901Z,93562.94
2023-01-11T14:51:42.523Z,93567.54
2023-01-11T14:56:58.327Z,93567.90
2023-01-11T15:02:17.697Z,93585.83
2023-01-11T15:07:37.329Z,93585.27
2023-01-11T15:12:44.322Z,93585.09
2023-01-11T15:18:16.447Z,93591.86
2023-01-11T15:23:24.281Z,93580.51
2023-01-11T15:28:50.187Z,93582.34
2023-01-11T15:33:57.874Z,93592.80
2023-01-11T15:39:11.067Z,93589.33
2023-01-11T15:44:41.424Z,93585.91
2023-01-11T15:50:30.073Z,93583.89
2023-01-11T15:56:16.888Z,93581.68
2023-01-11T16:01:31.338Z,93587.41
2023-01-11T16:06:56.243Z,93576.88
2023-01-11T16:12:25.306Z,93569.30
2023-01-11T16:17:32.267Z,93583.95
2023-01-11T16:22:39.427Z,93593.39
2023-01-11T16:27:50.037Z,93593.24
2023-01-11T16:33:17.523Z,93591.13
2023-01-11T16:38:26.302Z,93581.84
2023-01-11T16:43:34.902Z,93582.41
2023-01-11T16:48:42.015Z,93581.66
2023-01-11T16:53:53.362Z,93576.14
2023-01-11T16:59:19.637Z,93560.69
2023-01-11T17:04:39.000Z,93552.13
2023-01-11T17:09:45.784Z,93558.12
2023-01-11T17:15:05.974Z,93556.00
2023-01-11T17:20:26.996Z,93552.11
2023-01-11T17:25:44.435Z,93549.33
2023-01-11T17:30:48.509Z,93559.77
2023-01-11T17:35:56.907Z,93554.13
2023-01-11T17:41:06.649Z,93549.00
2023-01-11T17:46:20.997Z,93546.70
2023-01-11T17:51:31.797Z,93550.87
2023-01-11T17:56:42.311Z,93558.34
2023-01-11T18:01:57.994Z,93555.63
2023-01-11T18:07:18.403Z,93564.80
2023-01-11T18:12:32.189Z,93573.91
2023-01-11T18:17:42.486Z,93576.35
2023-01-11T18:23:15.254Z,93572.31
2023-01-11T18:28:29.708Z,93579.20
2023-01-11T18:33:37.754Z,93580.28
2023-01-11T18:38:44.523Z,93579.91
2023-01-11T18:43:51.575Z,93578.25
2023-01-11T18:48:58.258Z,93576.25
2023-01-11T18:54:06.025Z,93586.44
2023-01-11T18:59:13.268Z,93575.45
2023-01-11T19:04:20.229Z,93578.93
2023-01-11T19:09:27.648Z,93575.41
2023-01-11T19:14:35.113Z,93576.70
2023-01-11T19:19:41.998Z,93581.22
2023-01-11T19:24:48.732Z,93585.48
2023-01-11T19:29:57.055Z,93570.26
2023-01-11T19:35:04.700Z,93558.81
2023-01-11T19:40:12.763Z,93568.23
2023-01-11T19:45:20.051Z,93561.94
2023-01-11T19:50:27.181Z,93560.91
2023-01-11T19:55:33.947Z,93562.81
2023-01-11T20:00:40.753Z,93567.58
2023-01-11T20:05:48.923Z,93568.02
2023-01-11T20:10:56.433Z,93570.63
2023-01-11T20:16:10.215Z,93569.81
2023-01-11T20:21:17.567Z,93564.09
2023-01-11T20:26:24.613Z,93554.43
2023-01-11T20:31:34.169Z,93562.64
2023-01-11T20:36:43.056Z,93569.63
2023-01-11T20:41:51.483Z,93580.59
2023-01-11T20:46:59.337Z,93579.11
2023-01-11T20:52:06.429Z,93581.66
2023-01-11T20:57:13.613Z,93599.72
2023-01-11T21:02:20.305Z,93592.09
2023-01-11T21:07:27.027Z,93588.98
2023-01-11T21:12:33.709Z,93583.46
2023-01-11T21:17:40.541Z,93587.02
2023-01-11T21:22:47.508Z,93596.55
2023-01-11T21:27:54.180Z,93607.34
2023-01-11T21:33:02.581Z,93599.17
2023-01-11T21:38:09.426Z,93606.78
2023-01-11T21:43:16.897Z,93614.23
2023-01-11T21:48:23.919Z,93625.06
2023-01-11T21:53:34.698Z,93627.77
2023-01-11T21:58:41.753Z,93629.87
2023-01-11T22:03:48.602Z,93611.84
2023-01-11T22:08:55.548Z,93621.00
2023-01-11T22:14:03.977Z,93622.59
2023-01-11T22:19:11.453Z,93629.20
2023-01-11T22:24:18.352Z,93632.79
2023-01-11T22:29:25.222Z,93638.13
2023-01-11T22:34:33.581Z,93623.65
2023-01-11T22:39:41.311Z,93619.61
2023-01-11T22:44:48.242Z,93620.33
2023-01-11T22:49:57.069Z,93628.86
2023-01-11T22:55:03.976Z,93635.37
2023-01-11T23:00:13.545Z,93625.40
2023-01-11T23:05:20.421Z,93625.55
2023-01-11T23:10:27.229Z,93623.72
2023-01-11T23:15:34.090Z,93631.67
2023-01-11T23:20:42.055Z,93636.97
2023-01-11T23:25:49.039Z,93633.08
2023-01-11T23:30:55.938Z,93641.70
2023-01-11T23:36:04.101Z,93641.05
2023-01-11T23:41:31.887Z,93650.14
2023-01-11T23:46:57.729Z,93655.49
2023-01-11T23:52:04.637Z,93649.10
2023-01-11T23:57:13.887Z,93659.16
